createdAt,value
2023-03-16T00:01:03.461Z,16.90
2023-03-16T00:03:30.573Z,13.30
2023-03-16T00:06:05.008Z,16.10
2023-03-16T00:08:34.209Z,17.60
2023-03-16T00:11:02.762Z,20.20
2023-03-16T00:13:30.608Z,20.10
2023-03-16T00:16:07.122Z,18.60
2023-03-16T00:18:38.425Z,17.20
2023-03-16T00:21:06.189Z,15.60
2023-03-16T00:23:35.454Z,17.00
2023-03-16T00:26:08.651Z,15.20
2023-03-16T00:28:38.901Z,17.90
2023-03-16T00:31:11.374Z,16.40
2023-03-16T00:33:44.803Z,18.50
2023-03-16T00:36:12.320Z,18.20
2023-03-16T00:38:48.702Z,18.70
2023-03-16T00:41:16.480Z,17.50
2023-03-16T00:43:44.918Z,16.70
2023-03-16T00:46:15.226Z,14.40
2023-03-16T00:48:45.868Z,14.20
2023-03-16T00:51:16.083Z,14.70
2023-03-16T00:53:45.788Z,14.00
2023-03-16T00:56:13.265Z,11.50
2023-03-16T00:58:42.652Z,13.60
2023-03-16T01:01:18.354Z,10.10
2023-03-16T01:03:46.860Z,10.40
2023-03-16T01:06:17.208Z,11.20
2023-03-16T01:08:44.343Z,10.80
2023-03-16T01:11:17.036Z,10.60
2023-03-16T01:13:49.159Z,9.70
2023-03-16T01:16:22.803Z,11.60
2023-03-16T01:18:50.006Z,12.50
2023-03-16T01:21:17.323Z,14.10
2023-03-16T01:23:44.647Z,13.50
2023-03-16T01:26:12.807Z,13.60
2023-03-16T01:28:39.827Z,12.80
2023-03-16T01:31:11.779Z,13.20
2023-03-16T01:33:38.839Z,11.00
2023-03-16T01:36:11.674Z,10.90
2023-03-16T01:38:52.468Z,11.50
2023-03-16T01:41:19.769Z,11.60
2023-03-16T01:43:46.867Z,10.40
2023-03-16T01:46:27.546Z,10.70
2023-03-16T01:49:01.898Z,10.20
2023-03-16T01:51:35.351Z,10.70
2023-03-16T01:54:14.033Z,12.70
2023-03-16T01:57:07.497Z,11.80
2023-03-16T02:00:18.548Z,12.40
2023-03-16T02:03:07.531Z,11.60
2023-03-16T02:05:49.170Z,13.10
2023-03-16T02:08:18.993Z,11.20
2023-03-16T02:10:46.281Z,10.10
2023-03-16T02:13:13.591Z,11.00
2023-03-16T02:15:41.323Z,12.10
2023-03-16T02:18:08.722Z,13.20
2023-03-16T02:20:42.092Z,12.40
2023-03-16T02:23:18.230Z,12.90
2023-03-16T02:26:01.901Z,12.80
2023-03-16T02:28:47.668Z,13.30
2023-03-16T02:31:19.751Z,12.30
2023-03-16T02:33:49.816Z,11.90
2023-03-16T02:36:18.453Z,13.10
2023-03-16T02:38:46.487Z,11.70
2023-03-16T02:41:18.684Z,13.20
2023-03-16T02:43:58.840Z,12.70
2023-03-16T02:46:35.351Z,13.40
2023-03-16T02:49:10.603Z,13.60
2023-03-16T02:51:38.187Z,10.80
2023-03-16T02:54:05.217Z,13.10
2023-03-16T02:56:36.786Z,12.50
2023-03-16T02:59:03.945Z,11.90
2023-03-16T03:01:34.516Z,12.80
2023-03-16T03:04:04.265Z,12.70
2023-03-16T03:06:33.185Z,11.80
2023-03-16T03:09:02.714Z,12.50
2023-03-16T03:11:30.625Z,11.10
2023-03-16T03:13:57.792Z,10.20
2023-03-16T03:16:26.648Z,10.10
2023-03-16T03:18:55.488Z,10.60
2023-03-16T03:21:24.492Z,11.70
2023-03-16T03:23:51.621Z,9.90
2023-03-16T03:26:19.444Z,8.90
2023-03-16T03:28:48.878Z,10.70
2023-03-16T03:31:20.226Z,9.80
2023-03-16T03:33:47.989Z,10.00
2023-03-16T03:36:15.633Z,9.60
2023-03-16T03:38:43.860Z,11.30
2023-03-16T03:41:13.547Z,11.50
2023-03-16T03:43:41.527Z,10.90
2023-03-16T03:46:18.700Z,10.40
2023-03-16T03:48:46.586Z,10.50
2023-03-16T03:51:13.929Z,10.30
2023-03-16T03:53:58.461Z,10.90
2023-03-16T03:56:37.899Z,9.50
2023-03-16T03:59:06.419Z,11.30
2023-03-16T04:01:53.273Z,11.10
2023-03-16T04:04:21.470Z,11.70
2023-03-16T04:06:50.737Z,9.50
2023-03-16T04:09:18.208Z,10.50
2023-03-16T04:11:45.603Z,10.90
2023-03-16T04:14:12.623Z,10.90
2023-03-16T04:16:39.945Z,10.90
2023-03-16T04:19:07.047Z,10.20
2023-03-16T04:21:34.221Z,10.80
2023-03-16T04:24:09.119Z,11.50
2023-03-16T04:26:37.648Z,11.40
2023-03-16T04:29:05.029Z,10.70
2023-03-16T04:31:35.718Z,11.40
2023-03-16T04:34:03.105Z,11.00
2023-03-16T04:36:32.613Z,11.30
2023-03-16T04:39:04.349Z,12.40
2023-03-16T04:41:32.362Z,13.50
2023-03-16T04:44:22.420Z,11.40
2023-03-16T04:46:50.497Z,13.40
2023-03-16T04:49:21.357Z,12.00
2023-03-16T04:51:49.019Z,13.70
2023-03-16T04:54:18.779Z,15.00
2023-03-16T04:56:46.478Z,14.50
2023-03-16T04:59:28.917Z,13.70
2023-03-16T05:02:06.146Z,15.40
2023-03-16T05:04:34.020Z,15.90
2023-03-16T05:07:07.871Z,16.70
2023-03-16T05:09:37.489Z,17.30
2023-03-16T05:12:04.834Z,15.90
2023-03-16T05:14:35.520Z,14.90
2023-03-16T05:17:14.216Z,16.40
2023-03-16T05:19:41.838Z,17.70
2023-03-16T05:22:09.558Z,17.20
2023-03-16T05:24:37.392Z,19.60
2023-03-16T05:27:08.436Z,18.80
2023-03-16T05:29:36.713Z,19.40
2023-03-16T05:32:06.689Z,20.40
2023-03-16T05:34:34.216Z,21.30
2023-03-16T05:37:01.252Z,17.90
2023-03-16T05:39:30.273Z,15.00
2023-03-16T05:41:57.833Z,17.40
2023-03-16T05:44:36.551Z,15.70
2023-03-16T05:47:09.730Z,17.10
2023-03-16T05:49:40.241Z,14.80
2023-03-16T05:52:13.343Z,14.20
2023-03-16T05:54:40.585Z,14.60
2023-03-16T05:57:09.138Z,14.50
2023-03-16T05:59:36.470Z,15.40
2023-03-16T06:02:04.086Z,17.60
2023-03-16T06:04:31.531Z,18.00
2023-03-16T06:06:59.229Z,17.30
2023-03-16T06:09:29.274Z,18.60
2023-03-16T06:11:56.846Z,18.50
2023-03-16T06:14:24.427Z,18.80
2023-03-16T06:16:56.151Z,20.30
2023-03-16T06:19:23.233Z,22.00
2023-03-16T06:21:54.506Z,25.70
2023-03-16T06:24:25.819Z,32.40
2023-03-16T06:26:53.552Z,35.40
2023-03-16T06:29:21.729Z,36.90
2023-03-16T06:31:50.788Z,33.60
2023-03-16T06:34:18.924Z,26.80
2023-03-16T06:36:46.193Z,25.70
2023-03-16T06:39:13.951Z,27.00
2023-03-16T06:41:43.714Z,24.90
2023-03-16T06:44:15.441Z,27.20
2023-03-16T06:46:52.096Z,29.20
2023-03-16T06:49:23.532Z,28.40
2023-03-16T06:51:50.740Z,31.50
2023-03-16T06:54:17.907Z,32.00
2023-03-16T06:56:46.411Z,31.90
2023-03-16T06:59:13.626Z,28.90
2023-03-16T07:01:43.917Z,30.40
2023-03-16T07:04:12.246Z,28.90
2023-03-16T07:06:39.669Z,26.50
2023-03-16T07:09:09.769Z,25.00
2023-03-16T07:11:37.123Z,22.40
2023-03-16T07:14:11.329Z,22.50
2023-03-16T07:16:43.214Z,21.60
2023-03-16T07:19:11.629Z,24.60
2023-03-16T07:21:40.403Z,22.80
2023-03-16T07:24:12.530Z,22.50
2023-03-16T07:26:41.013Z,21.60
2023-03-16T07:29:09.514Z,24.00
2023-03-16T07:31:37.459Z,21.60
2023-03-16T07:34:07.757Z,19.40
2023-03-16T07:36:41.441Z,22.30
2023-03-16T07:39:08.539Z,21.90
2023-03-16T07:41:36.967Z,20.70
2023-03-16T07:47:00.021Z,24.60
2023-03-16T07:50:10.885Z,22.50
2023-03-16T07:52:43.646Z,23.70
2023-03-16T07:55:11.370Z,20.90
2023-03-16T07:57:47.398Z,20.40
2023-03-16T08:00:16.869Z,21.70
2023-03-16T08:02:44.783Z,19.40
2023-03-16T08:05:14.884Z,20.50
2023-03-16T08:10:16.620Z,18.90
2023-03-16T08:12:51.633Z,21.70
2023-03-16T08:15:19.131Z,16.70
2023-03-16T08:17:47.401Z,19.60
2023-03-16T08:20:26.552Z,17.30
2023-03-16T08:22:54.616Z,20.00
2023-03-16T08:25:26.092Z,18.60
2023-03-16T08:28:10.266Z,20.70
2023-03-16T08:30:44.397Z,22.90
2023-03-16T08:33:36.784Z,22.70
2023-03-16T08:36:09.828Z,23.70
2023-03-16T08:38:39.668Z,22.80
2023-03-16T08:41:08.820Z,25.50
2023-03-16T08:43:36.966Z,25.30
2023-03-16T08:46:06.294Z,25.90
2023-03-16T08:48:43.414Z,28.10
2023-03-16T08:51:13.330Z,27.20
2023-03-16T08:53:40.256Z,27.70
2023-03-16T08:56:11.931Z,29.00
2023-03-16T08:58:45.446Z,28.00
2023-03-16T09:01:14.733Z,29.20
2023-03-16T09:03:45.878Z,28.50
2023-03-16T09:06:16.635Z,27.70
2023-03-16T09:08:44.963Z,27.00
2023-03-16T09:11:18.307Z,26.80
2023-03-16T09:13:46.800Z,27.60
2023-03-16T09:16:18.511Z,29.40
2023-03-16T09:18:45.925Z,30.60
2023-03-16T09:21:13.385Z,28.50
2023-03-16T09:23:42.358Z,28.10
2023-03-16T09:26:11.981Z,27.50
2023-03-16T09:28:41.677Z,26.50
2023-03-16T09:31:17.395Z,27.50
2023-03-16T09:33:44.449Z,24.40
2023-03-16T09:36:13.572Z,22.90
2023-03-16T09:38:44.079Z,23.70
2023-03-16T09:41:34.609Z,24.10
2023-03-16T09:44:11.986Z,23.10
2023-03-16T09:46:45.027Z,24.50
2023-03-16T09:49:17.144Z,24.80
2023-03-16T09:51:48.394Z,22.20
2023-03-16T09:54:18.843Z,19.80
2023-03-16T09:56:49.780Z,22.30
2023-03-16T09:59:18.524Z,20.20
2023-03-16T10:01:54.776Z,22.40
2023-03-16T10:04:39.146Z,21.80
2023-03-16T10:07:20.620Z,21.20
2023-03-16T10:10:02.190Z,20.80
2023-03-16T10:12:41.479Z,20.40
2023-03-16T10:15:15.919Z,19.60
2023-03-16T10:18:01.801Z,19.50
2023-03-16T10:20:33.695Z,19.20
2023-03-16T10:23:12.860Z,19.50
2023-03-16T10:25:49.427Z,20.50
2023-03-16T10:28:21.016Z,19.00
2023-03-16T10:30:57.577Z,19.60
2023-03-16T10:33:34.221Z,18.60
2023-03-16T10:36:05.108Z,18.80
2023-03-16T10:38:46.251Z,18.40
2023-03-16T10:41:25.438Z,18.50
2023-03-16T10:44:11.476Z,18.50
2023-03-16T10:46:50.967Z,19.10
2023-03-16T10:49:27.775Z,18.40
2023-03-16T10:52:02.373Z,19.10
2023-03-16T10:54:40.602Z,20.10
2023-03-16T10:57:27.740Z,19.30
2023-03-16T10:59:59.540Z,18.00
2023-03-16T11:02:35.198Z,18.30
2023-03-16T11:05:17.916Z,17.90
2023-03-16T11:07:54.176Z,16.70
2023-03-16T11:10:38.074Z,17.20
2023-03-16T11:13:18.237Z,17.30
2023-03-16T11:15:51.197Z,17.60
2023-03-16T11:18:35.209Z,22.10
2023-03-16T11:21:12.380Z,21.10
2023-03-16T11:23:49.151Z,21.90
2023-03-16T11:26:27.355Z,20.90
2023-03-16T11:29:03.294Z,24.20
2023-03-16T11:32:00.312Z,26.90
2023-03-16T11:34:30.241Z,27.10
2023-03-16T11:37:21.216Z,25.00
2023-03-16T11:39:54.369Z,26.40
2023-03-16T11:42:30.561Z,27.00
2023-03-16T11:45:22.366Z,27.80
2023-03-16T11:48:06.126Z,27.90
2023-03-16T11:50:44.568Z,30.10
2023-03-16T11:53:14.537Z,28.30
2023-03-16T11:56:16.941Z,29.10
2023-03-16T11:59:15.416Z,27.10
2023-03-16T12:02:00.741Z,33.10
2023-03-16T12:04:40.595Z,29.30
2023-03-16T12:07:34.872Z,32.40
2023-03-16T12:10:21.800Z,32.60
2023-03-16T12:13:04.399Z,33.20
2023-03-16T12:18:29.743Z,33.10
2023-03-16T12:21:01.962Z,30.30
2023-03-16T12:23:35.469Z,31.50
2023-03-16T12:26:03.681Z,31.20
2023-03-16T12:28:32.889Z,35.80
2023-03-16T12:31:14.219Z,35.50
2023-03-16T12:33:56.467Z,31.70
2023-03-16T12:36:26.158Z,32.10
2023-03-16T12:39:06.946Z,31.40
2023-03-16T12:41:56.760Z,34.10
2023-03-16T12:44:33.791Z,30.00
2023-03-16T12:47:12.601Z,30.80
2023-03-16T12:49:39.861Z,27.50
2023-03-16T12:52:11.987Z,29.80
2023-03-16T12:55:05.538Z,27.80
2023-03-16T12:57:33.266Z,30.00
2023-03-16T13:00:01.279Z,28.40
2023-03-16T13:02:32.146Z,26.50
2023-03-16T13:05:12.447Z,25.10
2023-03-16T13:07:51.972Z,28.40
2023-03-16T13:10:21.998Z,27.10
2023-03-16T13:12:50.973Z,23.80
2023-03-16T13:15:21.693Z,23.40
2023-03-16T13:18:09.390Z,20.80
2023-03-16T13:21:13.830Z,23.60
2023-03-16T13:24:19.948Z,21.50
2023-03-16T13:26:51.730Z,21.60
2023-03-16T13:29:32.756Z,20.20
2023-03-16T13:32:02.890Z,21.70
2023-03-16T13:34:35.772Z,21.20
2023-03-16T13:37:04.098Z,21.20
2023-03-16T13:39:32.405Z,22.40
2023-03-16T13:42:09.263Z,23.50
2023-03-16T13:44:41.503Z,25.20
2023-03-16T13:47:19.495Z,25.30
2023-03-16T13:49:55.230Z,24.60
2023-03-16T13:52:42.688Z,24.00
2023-03-16T13:55:21.795Z,24.90
2023-03-16T14:00:20.511Z,24.40
2023-03-16T14:02:53.161Z,27.00
2023-03-16T14:05:30.182Z,23.80
2023-03-16T14:08:00.175Z,27.20
2023-03-16T14:10:33.751Z,28.20
2023-03-16T14:13:21.743Z,29.40
2023-03-16T14:15:50.090Z,26.90
2023-03-16T14:18:22.475Z,27.50
2023-03-16T14:20:52.891Z,28.60
2023-03-16T14:23:43.688Z,28.90
2023-03-16T14:26:21.256Z,27.00
2023-03-16T14:29:04.724Z,28.70
2023-03-16T14:31:39.110Z,30.10
2023-03-16T14:34:26.967Z,30.70
2023-03-16T14:37:19.670Z,30.70
2023-03-16T14:40:02.098Z,31.50
2023-03-16T14:42:30.741Z,30.50
2023-03-16T14:45:10.630Z,28.90
2023-03-16T14:47:42.204Z,31.80
2023-03-16T14:50:16.426Z,31.10
2023-03-16T14:52:45.375Z,30.50
2023-03-16T14:55:15.035Z,30.80
2023-03-16T14:57:44.723Z,29.90
2023-03-16T15:00:16.191Z,32.20
2023-03-16T15:02:51.367Z,32.20
2023-03-16T15:05:28.595Z,34.60
2023-03-16T15:07:56.397Z,35.20
2023-03-16T15:10:27.109Z,52.60
2023-03-16T15:13:03.890Z,46.20
2023-03-16T15:15:32.069Z,42.60
2023-03-16T15:18:01.740Z,36.50
2023-03-16T15:20:34.841Z,39.10
2023-03-16T15:25:40.116Z,36.10
2023-03-16T15:28:18.431Z,36.70
2023-03-16T15:30:54.450Z,43.00
2023-03-16T15:33:22.983Z,62.90
2023-03-16T15:35:52.369Z,50.60
2023-03-16T15:38:32.873Z,49.20
2023-03-16T15:41:00.104Z,54.30
2023-03-16T15:43:30.491Z,68.70
2023-03-16T15:45:59.483Z,92.50
2023-03-16T15:48:27.127Z,88.00
2023-03-16T15:50:59.664Z,70.60
2023-03-16T15:53:35.577Z,77.90
2023-03-16T15:56:07.953Z,49.00
2023-03-16T15:58:37.872Z,44.30
2023-03-16T16:01:08.213Z,43.70
2023-03-16T16:03:35.209Z,49.80
2023-03-16T16:06:02.491Z,47.30
2023-03-16T16:08:32.511Z,54.10
2023-03-16T16:10:59.904Z,48.90
2023-03-16T16:13:43.121Z,47.90
2023-03-16T16:16:13.963Z,47.00
2023-03-16T16:18:41.859Z,41.80
2023-03-16T16:21:23.305Z,46.90
2023-03-16T16:23:52.309Z,48.50
2023-03-16T16:26:50.049Z,49.50
2023-03-16T16:29:24.375Z,49.90
2023-03-16T16:31:52.652Z,52.40
2023-03-16T16:34:23.766Z,50.50
2023-03-16T16:36:51.290Z,46.70
2023-03-16T16:39:18.413Z,47.50
2023-03-16T16:41:49.422Z,48.60
2023-03-16T16:44:21.084Z,48.40
2023-03-16T16:46:51.869Z,50.30
2023-03-16T16:49:23.627Z,55.20
2023-03-16T16:51:52.089Z,56.30
2023-03-16T16:54:22.489Z,58.60
2023-03-16T16:56:52.677Z,64.00
2023-03-16T16:59:23.954Z,66.60
2023-03-16T17:01:53.465Z,71.40
2023-03-16T17:04:25.531Z,66.20
2023-03-16T17:06:57.895Z,56.20
2023-03-16T17:09:27.686Z,55.00
2023-03-16T17:11:58.195Z,54.30
2023-03-16T17:14:27.621Z,64.60
2023-03-16T17:17:02.112Z,58.10
2023-03-16T17:19:32.242Z,54.00
2023-03-16T17:21:59.359Z,51.40
2023-03-16T17:24:29.306Z,52.20
2023-03-16T17:26:59.698Z,56.50
2023-03-16T17:29:30.965Z,51.60
2023-03-16T17:32:15.060Z,51.20
2023-03-16T17:34:42.459Z,52.00
2023-03-16T17:37:17.362Z,53.90
2023-03-16T17:39:45.272Z,52.50
2023-03-16T17:42:18.038Z,49.00
2023-03-16T17:44:48.175Z,48.80
2023-03-16T17:47:26.944Z,50.70
2023-03-16T17:49:54.247Z,48.10
2023-03-16T17:52:25.101Z,47.70
2023-03-16T17:54:53.637Z,45.50
2023-03-16T17:57:28.736Z,44.80
2023-03-16T17:59:55.948Z,41.30
2023-03-16T18:02:26.054Z,43.00
2023-03-16T18:04:54.496Z,40.70
2023-03-16T18:07:21.841Z,41.30
2023-03-16T18:10:15.494Z,38.60
2023-03-16T18:12:43.812Z,37.20
2023-03-16T18:15:17.848Z,34.70
2023-03-16T18:17:45.731Z,33.40
2023-03-16T18:20:22.827Z,29.10
2023-03-16T18:22:50.462Z,27.40
2023-03-16T18:25:32.562Z,26.00
2023-03-16T18:28:02.148Z,26.50
2023-03-16T18:30:32.397Z,23.60
2023-03-16T18:33:00.518Z,20.70
2023-03-16T18:35:28.492Z,18.00
2023-03-16T18:37:55.857Z,18.00
2023-03-16T18:40:24.149Z,16.50
2023-03-16T18:42:53.854Z,19.80
2023-03-16T18:45:27.294Z,20.00
2023-03-16T18:47:57.454Z,18.70
2023-03-16T18:50:28.177Z,19.30
2023-03-16T18:52:57.791Z,18.10
2023-03-16T18:55:25.352Z,16.30
2023-03-16T18:57:55.917Z,16.80
2023-03-16T19:00:29.224Z,20.60
2023-03-16T19:03:00.168Z,23.30
2023-03-16T19:05:36.228Z,26.60
2023-03-16T19:08:04.654Z,24.60
2023-03-16T19:10:36.277Z,24.50
2023-03-16T19:13:10.988Z,28.00
2023-03-16T19:15:38.740Z,33.10
2023-03-16T19:18:05.710Z,23.60
2023-03-16T19:20:34.771Z,23.00
2023-03-16T19:23:15.554Z,24.40
2023-03-16T19:25:42.857Z,23.20
2023-03-16T19:28:17.447Z,24.90
2023-03-16T19:30:47.029Z,19.80
2023-03-16T19:33:20.397Z,19.00
2023-03-16T19:35:55.347Z,16.60
2023-03-16T19:38:25.792Z,18.10
2023-03-16T19:40:56.172Z,17.00
2023-03-16T19:43:26.632Z,17.30
2023-03-16T19:45:55.898Z,17.40
2023-03-16T19:48:32.362Z,19.80
2023-03-16T19:51:00.023Z,18.90
2023-03-16T19:53:29.334Z,17.90
2023-03-16T19:55:56.642Z,18.20
2023-03-16T19:58:30.193Z,19.30
2023-03-16T20:00:58.419Z,20.40
2023-03-16T20:03:25.623Z,19.50
2023-03-16T20:05:53.086Z,19.00
2023-03-16T20:08:26.375Z,18.80
2023-03-16T20:11:01.686Z,19.30
2023-03-16T20:13:36.120Z,19.80
2023-03-16T20:16:03.378Z,19.40
2023-03-16T20:18:30.451Z,20.20
2023-03-16T20:21:04.510Z,19.40
2023-03-16T20:23:34.491Z,18.60
2023-03-16T20:26:02.925Z,16.10
2023-03-16T20:28:37.952Z,17.50
2023-03-16T20:31:08.886Z,14.40
2023-03-16T20:33:37.637Z,17.40
2023-03-16T20:36:05.087Z,18.20
2023-03-16T20:38:33.009Z,17.20
2023-03-16T20:41:00.630Z,17.80
2023-03-16T20:43:31.002Z,17.80
2023-03-16T20:46:00.962Z,17.50
2023-03-16T20:48:28.783Z,17.70
2023-03-16T20:50:57.773Z,16.60
2023-03-16T20:53:26.700Z,19.30
2023-03-16T20:55:55.884Z,24.40
2023-03-16T20:58:27.575Z,23.90
2023-03-16T21:00:57.157Z,24.80
2023-03-16T21:03:29.668Z,22.40
2023-03-16T21:05:59.693Z,21.40
2023-03-16T21:08:27.404Z,20.60
2023-03-16T21:11:00.772Z,21.20
2023-03-16T21:13:32.602Z,21.10
2023-03-16T21:16:02.876Z,21.30
2023-03-16T21:18:34.395Z,21.40
2023-03-16T21:21:02.697Z,19.30
2023-03-16T21:23:29.761Z,20.40
2023-03-16T21:26:00.877Z,19.80
2023-03-16T21:28:32.958Z,20.80
2023-03-16T21:31:00.585Z,18.30
2023-03-16T21:33:41.541Z,18.70
2023-03-16T21:36:17.965Z,17.10
2023-03-16T21:38:46.852Z,15.70
2023-03-16T21:41:16.173Z,15.20
2023-03-16T21:43:44.289Z,16.90
2023-03-16T21:46:20.198Z,16.70
2023-03-16T21:48:51.679Z,16.30
2023-03-16T21:51:24.449Z,13.90
2023-03-16T21:53:52.937Z,13.70
2023-03-16T21:56:23.277Z,14.00
2023-03-16T21:58:52.207Z,15.00
2023-03-16T22:01:30.999Z,13.70
2023-03-16T22:04:08.713Z,13.40
2023-03-16T22:06:36.112Z,13.60
2023-03-16T22:09:03.604Z,14.10
2023-03-16T22:11:31.545Z,13.90
2023-03-16T22:13:59.789Z,14.80
2023-03-16T22:16:32.948Z,15.20
2023-03-16T22:19:01.507Z,17.60
2023-03-16T22:21:44.561Z,17.50
2023-03-16T22:24:16.953Z,18.10
2023-03-16T22:26:44.047Z,19.00
2023-03-16T22:29:30.505Z,16.90
2023-03-16T22:32:03.623Z,16.60
2023-03-16T22:34:32.190Z,16.50
2023-03-16T22:37:01.381Z,16.40
2023-03-16T22:39:33.717Z,18.70
2023-03-16T22:42:16.060Z,17.90
2023-03-16T22:44:43.107Z,17.90
2023-03-16T22:47:28.594Z,19.40
2023-03-16T22:49:55.553Z,16.40
2023-03-16T22:52:28.370Z,18.50
2023-03-16T22:54:57.189Z,17.30
2023-03-16T22:57:24.564Z,16.90
2023-03-16T22:59:52.451Z,17.20
2023-03-16T23:02:23.882Z,17.00
2023-03-16T23:04:50.956Z,16.20
2023-03-16T23:07:19.221Z,17.40
2023-03-16T23:09:47.970Z,16.00
2023-03-16T23:12:21.434Z,18.70
2023-03-16T23:14:49.469Z,15.80
2023-03-16T23:17:21.677Z,18.40
2023-03-16T23:19:54.295Z,18.00
2023-03-16T23:22:21.274Z,17.20
2023-03-16T23:24:48.133Z,17.60
2023-03-16T23:27:21.762Z,17.60
2023-03-16T23:29:49.155Z,18.10
2023-03-16T23:32:16.990Z,18.20
2023-03-16T23:34:44.165Z,17.20
2023-03-16T23:37:11.359Z,21.10
2023-03-16T23:39:39.426Z,19.10
2023-03-16T23:42:07.018Z,18.00
2023-03-16T23:44:34.136Z,15.90
2023-03-16T23:47:01.791Z,18.10
2023-03-16T23:49:41.988Z,16.90
2023-03-16T23:52:11.754Z,19.30
2023-03-16T23:54:38.611Z,19.20
2023-03-16T23:57:05.696Z,19.10
2023-03-16T23:59:33.048Z,20.80
